Time,TemperatureF,DewpointF,PressureIn,WindDirection,WindDirectionDegrees,WindSpeedMPH,WindSpeedGustMPH,Humidity,HourlyPrecipIn,Conditions,Clouds,dailyrainin,SoftwareType,DateUTC
2013-03-27 00:00:00,52.9,36.6,29.55,North,0,0.0,0.0,54,0.00,,,0.00,WUHU216HW,2013-03-27 07:00:00,
2013-03-27 00:05:00,52.7,36.5,29.52,North,0,1.6,2.0,54,0.00,,,0.00,WUHU216HW,2013-03-27 07:05:00,
2013-03-27 00:07:00,52.6,36.4,29.52,North,0,1.3,1.3,54,0.00,,,0.00,WUHU216HW,2013-03-27 07:07:00,
2013-03-27 00:10:00,52.6,36.4,29.52,North,0,1.3,2.0,54,0.00,,,0.00,WUHU216HW,2013-03-27 07:10:00,
2013-03-27 00:15:00,52.6,36.4,29.52,North,0,1.3,1.8,54,0.00,,,0.00,WUHU216HW,2013-03-27 07:15:00,
2013-03-27 01:00:00,51.7,37.7,29.55,North,0,1.1,1.1,59,0.00,,,0.00,WUHU216HW,2013-03-27 08:00:00,
2013-03-27 01:05:00,51.5,37.5,29.52,North,0,1.1,1.3,59,0.00,,,0.00,WUHU216HW,2013-03-27 08:05:00,
2013-03-27 01:10:00,51.5,38.0,29.51,North,0,1.8,2.5,60,0.00,,,0.00,WUHU216HW,2013-03-27 08:10:00,
2013-03-27 01:15:00,51.5,38.0,29.51,North,0,1.8,2.5,60,0.00,,,0.00,WUHU216HW,2013-03-27 08:15:00,
2013-03-27 02:00:00,50.8,37.8,29.55,North,0,0.0,0.0,61,0.00,,,0.00,WUHU216HW,2013-03-27 09:00:00,
2013-03-27 02:05:00,50.9,38.0,29.52,NNW,348,1.2,2.0,61,0.00,,,0.00,WUHU216HW,2013-03-27 09:05:00,
2013-03-27 02:08:00,50.9,38.3,29.51,North,0,0.0,0.0,62,0.00,,,0.00,WUHU216HW,2013-03-27 09:08:00,
2013-03-27 02:10:00,50.9,38.3,29.51,North,0,0.0,2.0,62,0.00,,,0.00,WUHU216HW,2013-03-27 09:10:00,
2013-03-27 02:15:00,50.9,38.3,29.51,North,0,0.0,1.3,62,0.00,,,0.00,WUHU216HW,2013-03-27 09:15:00,
2013-03-27 03:00:00,50.6,38.8,29.54,NNE,23,0.9,0.9,64,0.00,,,0.00,WUHU216HW,2013-03-27 10:00:00,
2013-03-27 03:05:00,50.6,38.8,29.52,North,0,1.6,1.8,64,0.00,,,0.00,WUHU216HW,2013-03-27 10:05:00,
2013-03-27 03:08:00,50.6,38.8,29.50,NNE,23,1.6,2.5,64,0.00,,,0.00,WUHU216HW,2013-03-27 10:08:00,
2013-03-27 03:10:00,50.6,38.8,29.50,NNE,13,2.0,2.5,64,0.00,,,0.00,WUHU216HW,2013-03-27 10:10:00,
2013-03-27 03:15:00,50.6,38.8,29.50,NNE,23,1.6,2.5,64,0.00,,,0.00,WUHU216HW,2013-03-27 10:15:00,
2013-03-27 04:00:00,50.0,38.7,29.53,NNE,23,0.9,0.9,65,0.00,,,0.00,WUHU216HW,2013-03-27 11:00:00,
2013-03-27 04:05:00,50.0,38.7,29.50,NNE,23,1.6,3.8,65,0.00,,,0.00,WUHU216HW,2013-03-27 11:05:00,
2013-03-27 04:06:00,50.0,38.7,29.49,North,0,1.1,1.8,65,0.00,,,0.00,WUHU216HW,2013-03-27 11:06:00,
2013-03-27 04:10:00,50.0,38.7,29.49,North,0,1.1,3.8,65,0.00,,,0.00,WUHU216HW,2013-03-27 11:10:00,
2013-03-27 04:15:00,50.0,38.7,29.49,North,0,1.1,1.8,65,0.00,,,0.00,WUHU216HW,2013-03-27 11:15:00,
2013-03-27 05:00:00,49.7,39.5,29.53,NNW,338,0.0,0.0,68,0.00,,,0.00,WUHU216HW,2013-03-27 12:00:00,
2013-03-27 05:05:00,49.5,39.3,29.50,North,356,0.7,0.9,68,0.00,,,0.00,WUHU216HW,2013-03-27 12:05:00,
2013-03-27 05:06:00,49.5,39.3,29.49,North,0,0.0,0.0,68,0.00,,,0.00,WUHU216HW,2013-03-27 12:06:00,
2013-03-27 05:10:00,49.5,39.3,29.49,North,0,0.0,0.9,68,0.00,,,0.00,WUHU216HW,2013-03-27 12:10:00,
2013-03-27 05:15:00,49.5,39.3,29.49,North,0,0.0,0.0,68,0.00,,,0.00,WUHU216HW,2013-03-27 12:15:00,
2013-03-27 06:00:00,49.1,39.0,29.52,NNE,23,0.0,0.0,68,0.00,,,0.00,WUHU216HW,2013-03-27 13:00:00,
2013-03-27 06:05:00,49.1,39.0,29.49,North,0,1.8,2.0,68,0.00,,,0.00,WUHU216HW,2013-03-27 13:05:00,
2013-03-27 06:10:00,49.1,39.0,29.48,North,0,1.1,2.0,68,0.00,,,0.00,WUHU216HW,2013-03-27 13:10:00,
2013-03-27 06:15:00,49.1,39.0,29.48,North,0,1.1,1.8,68,0.00,,,0.00,WUHU216HW,2013-03-27 13:15:00,
2013-03-27 07:00:00,49.0,39.3,29.52,North,0,2.0,2.0,69,0.00,,,0.00,WUHU216HW,2013-03-27 14:00:00,
2013-03-27 07:05:00,48.8,39.1,29.48,North,0,1.2,3.1,69,0.00,,,0.00,WUHU216HW,2013-03-27 14:05:00,
2013-03-27 07:10:00,48.8,39.1,29.48,NNW,338,1.6,3.1,69,0.00,,,0.00,WUHU216HW,2013-03-27 14:10:00,
2013-03-27 07:15:00,48.8,39.1,29.48,NNW,338,1.6,1.6,69,0.00,,,0.00,WUHU216HW,2013-03-27 14:15:00,
2013-03-27 08:00:00,49.7,40.7,29.52,North,0,0.4,0.4,71,0.00,,,0.00,WUHU216HW,2013-03-27 15:00:00,
2013-03-27 08:05:00,50.0,41.1,29.49,NE,45,1.3,1.3,71,0.00,,,0.00,WUHU216HW,2013-03-27 15:05:00,
2013-03-27 08:07:00,50.0,41.1,29.49,NNE,23,0.4,1.6,71,0.00,,,0.00,WUHU216HW,2013-03-27 15:07:00,
2013-03-27 08:10:00,50.0,41.1,29.49,NNE,23,0.4,3.4,71,0.00,,,0.00,WUHU216HW,2013-03-27 15:10:00,
2013-03-27 08:15:00,50.0,41.1,29.49,NNE,23,0.4,3.4,71,0.00,,,0.00,WUHU216HW,2013-03-27 15:15:00,
2013-03-27 09:00:00,52.2,41.9,29.53,North,0,2.5,2.5,68,0.00,,,0.00,WUHU216HW,2013-03-27 16:00:00,
2013-03-27 09:04:00,52.2,41.9,29.50,NE,45,1.3,1.3,68,0.00,,,0.00,WUHU216HW,2013-03-27 16:04:00,
2013-03-27 09:05:00,52.2,41.9,29.50,NE,45,1.3,2.5,68,0.00,,,0.00,WUHU216HW,2013-03-27 16:05:00,
2013-03-27 09:10:00,52.2,41.9,29.50,NE,45,1.3,2.5,68,0.00,,,0.00,WUHU216HW,2013-03-27 16:10:00,
2013-03-27 10:00:00,54.0,42.0,29.54,ESE,113,0.0,0.0,64,0.00,,,0.00,WUHU216HW,2013-03-27 17:00:00,
2013-03-27 10:05:00,54.0,42.0,29.52,ESE,113,0.0,0.0,64,0.00,,,0.00,WUHU216HW,2013-03-27 17:05:00,
2013-03-27 10:10:00,54.0,42.5,29.50,ESE,113,0.0,0.0,65,0.00,,,0.00,WUHU216HW,2013-03-27 17:10:00,
2013-03-27 10:15:00,54.0,42.5,29.50,SSE,158,0.9,1.8,65,0.00,,,0.00,WUHU216HW,2013-03-27 17:15:00,
2013-03-27 10:20:00,54.0,42.5,29.50,SSE,158,0.9,1.8,65,0.00,,,0.00,WUHU216HW,2013-03-27 17:20:00,
2013-03-27 11:00:00,54.4,42.4,29.54,WSW,248,0.0,0.0,64,0.00,,,0.00,WUHU216HW,2013-03-27 18:00:00,
2013-03-27 11:05:00,54.5,42.6,29.52,WNW,293,0.3,1.1,64,0.00,,,0.00,WUHU216HW,2013-03-27 18:05:00,
2013-03-27 11:06:00,54.7,42.8,29.50,WNW,293,0.0,0.0,64,0.00,,,0.00,WUHU216HW,2013-03-27 18:06:00,
2013-03-27 11:10:00,54.7,42.8,29.50,WNW,293,0.0,1.1,64,0.00,,,0.00,WUHU216HW,2013-03-27 18:10:00,
2013-03-27 11:15:00,54.7,42.8,29.50,WNW,293,0.0,0.0,64,0.00,,,0.00,WUHU216HW,2013-03-27 18:15:00,
2013-03-27 12:00:00,57.1,45.0,29.55,NW,315,0.0,0.0,64,0.00,,,0.00,WUHU216HW,2013-03-27 19:00:00,
2013-03-27 12:05:00,57.6,45.5,29.52,North,0,0.3,1.8,64,0.00,,,0.00,WUHU216HW,2013-03-27 19:05:00,
2013-03-27 12:09:00,58.3,45.7,29.51,NNW,338,0.0,0.2,63,0.00,,,0.00,WUHU216HW,2013-03-27 19:09:00,
2013-03-27 12:10:00,58.3,45.7,29.51,SW,227,0.9,2.7,63,0.00,,,0.00,WUHU216HW,2013-03-27 19:10:00,
2013-03-27 12:15:00,58.3,45.7,29.51,NNW,338,0.0,2.7,63,0.00,,,0.00,WUHU216HW,2013-03-27 19:15:00,
2013-03-27 12:59:00,59.0,45.2,29.55,NNW,338,0.0,0.0,60,0.00,,,0.00,WUHU216HW,2013-03-27 19:59:00,
2013-03-27 13:00:00,59.0,45.2,29.55,NNW,338,0.0,0.0,60,0.00,,,0.00,WUHU216HW,2013-03-27 20:00:00,
2013-03-27 13:05:00,59.0,45.2,29.55,NNW,338,0.0,0.0,60,0.00,,,0.00,WUHU216HW,2013-03-27 20:05:00,
2013-03-27 14:00:00,64.1,45.6,29.55,East,90,2.0,2.0,51,0.00,,,0.00,WUHU216HW,2013-03-27 21:00:00,
2013-03-27 14:02:00,64.1,46.0,29.52,North,0,2.5,2.5,52,0.00,,,0.00,WUHU216HW,2013-03-27 21:02:00,
2013-03-27 14:05:00,64.1,46.0,29.52,North,0,2.5,2.5,52,0.00,,,0.00,WUHU216HW,2013-03-27 21:05:00,
2013-03-27 14:10:00,64.1,46.0,29.52,North,0,2.5,2.5,52,0.00,,,0.00,WUHU216HW,2013-03-27 21:10:00,
2013-03-27 15:00:00,60.1,44.4,29.55,North,0,1.1,1.1,56,0.00,,,0.00,WUHU216HW,2013-03-27 22:00:00,
2013-03-27 15:05:00,59.9,44.6,29.54,North,0,0.0,1.1,57,0.00,,,0.00,WUHU216HW,2013-03-27 22:05:00,
2013-03-27 15:10:00,59.6,44.3,29.52,ENE,68,0.8,1.8,57,0.00,,,0.00,WUHU216HW,2013-03-27 22:10:00,
2013-03-27 15:15:00,59.4,44.1,29.51,South,190,0.8,2.0,57,0.00,,,0.00,WUHU216HW,2013-03-27 22:15:00,
2013-03-27 15:18:00,59.2,44.5,29.51,ENE,68,0.2,0.2,58,0.00,,,0.00,WUHU216HW,2013-03-27 22:18:00,
2013-03-27 15:20:00,59.2,44.5,29.51,ENE,68,0.2,2.0,58,0.00,,,0.00,WUHU216HW,2013-03-27 22:20:00,
2013-03-27 15:25:00,59.2,44.5,29.51,ENE,68,0.2,1.8,58,0.00,,,0.00,WUHU216HW,2013-03-27 22:25:00,
2013-03-27 16:00:00,57.4,45.3,29.55,NNE,23,0.7,0.7,64,0.02,,,0.00,WUHU216HW,2013-03-27 23:00:00,
2013-03-27 16:05:00,57.2,45.2,29.52,NNE,23,0.0,0.7,64,0.03,,,0.03,WUHU216HW,2013-03-27 23:05:00,
2013-03-27 16:07:00,57.2,45.5,29.51,NNW,338,0.4,0.4,65,0.03,,,0.03,WUHU216HW,2013-03-27 23:07:00,
2013-03-27 16:10:00,57.2,45.5,29.51,NNW,338,0.4,1.6,65,0.03,,,0.03,WUHU216HW,2013-03-27 23:10:00,
2013-03-27 16:15:00,57.2,45.5,29.51,NNW,338,0.4,1.6,65,0.03,,,0.03,WUHU216HW,2013-03-27 23:15:00,
2013-03-27 17:00:00,56.5,46.1,29.55,North,0,0.4,0.4,68,0.01,,,0.03,WUHU216HW,2013-03-28 00:00:00,
2013-03-27 17:05:00,56.5,46.1,29.53,North,3,1.0,2.2,68,0.00,,,0.03,WUHU216HW,2013-03-28 00:05:00,
2013-03-27 17:10:00,56.5,46.4,29.51,NNE,24,1.0,2.2,69,0.00,,,0.03,WUHU216HW,2013-03-28 00:10:00,
2013-03-27 17:11:00,56.5,46.4,29.51,North,0,2.5,3.1,69,0.00,,,0.03,WUHU216HW,2013-03-28 00:11:00,
2013-03-27 17:15:00,56.5,46.4,29.51,North,0,2.5,3.1,69,0.00,,,0.03,WUHU216HW,2013-03-28 00:15:00,
2013-03-27 17:20:00,56.5,46.4,29.51,North,0,2.5,3.1,69,0.00,,,0.03,WUHU216HW,2013-03-28 00:20:00,
2013-03-27 18:00:00,57.2,47.5,29.55,North,0,1.1,1.1,70,0.00,,,0.03,WUHU216HW,2013-03-28 01:00:00,
2013-03-27 18:04:00,57.2,47.5,29.52,North,0,1.8,1.8,70,0.00,,,0.03,WUHU216HW,2013-03-28 01:04:00,
2013-03-27 18:05:00,57.2,47.5,29.52,North,0,1.8,2.2,70,0.00,,,0.03,WUHU216HW,2013-03-28 01:05:00,
2013-03-27 18:10:00,57.2,47.5,29.52,North,0,1.8,2.2,70,0.00,,,0.03,WUHU216HW,2013-03-28 01:10:00,
2013-03-27 19:00:00,55.8,46.3,29.54,NNE,23,0.9,0.9,70,0.00,,,0.03,WUHU216HW,2013-03-28 02:00:00,
2013-03-27 19:05:00,55.6,46.5,29.52,North,0,1.1,2.5,71,0.00,,,0.03,WUHU216HW,2013-03-28 02:05:00,
2013-03-27 19:09:00,55.4,46.3,29.50,NW,315,0.0,0.4,71,0.00,,,0.03,WUHU216HW,2013-03-28 02:09:00,
2013-03-27 19:10:00,55.4,46.3,29.50,WSW,248,0.4,2.9,71,0.00,,,0.03,WUHU216HW,2013-03-28 02:10:00,
2013-03-27 19:15:00,55.4,46.3,29.50,NW,315,0.0,2.9,71,0.00,,,0.03,WUHU216HW,2013-03-28 02:15:00,
2013-03-27 20:00:00,53.3,44.5,29.54,NNE,23,0.9,0.9,72,0.00,,,0.03,WUHU216HW,2013-03-28 03:00:00,
2013-03-27 20:05:00,53.1,44.3,29.51,North,358,1.0,1.3,72,0.00,,,0.03,WUHU216HW,2013-03-28 03:05:00,
2013-03-27 20:07:00,52.9,44.6,29.50,North,0,0.0,0.0,73,0.00,,,0.03,WUHU216HW,2013-03-28 03:07:00,
2013-03-27 20:10:00,52.9,44.6,29.50,North,0,0.0,1.3,73,0.00,,,0.03,WUHU216HW,2013-03-28 03:10:00,
2013-03-27 20:15:00,52.9,44.6,29.50,North,0,0.0,0.0,73,0.00,,,0.03,WUHU216HW,2013-03-28 03:15:00,
2013-03-27 21:00:00,51.5,43.8,29.55,NNW,338,0.0,0.0,75,0.00,,,0.03,WUHU216HW,2013-03-28 04:00:00,
2013-03-27 21:01:00,51.5,43.8,29.55,NNW,338,0.0,0.0,75,0.00,,,0.03,WUHU216HW,2013-03-28 04:01:00,
2013-03-27 21:06:00,51.3,44.0,29.53,NNW,338,0.0,0.0,76,0.00,,,0.03,WUHU216HW,2013-03-28 04:06:00,
2013-03-27 21:09:00,51.3,44.0,29.51,NNW,338,0.0,0.0,76,0.00,,,0.03,WUHU216HW,2013-03-28 04:09:00,
2013-03-27 21:11:00,51.3,44.0,29.51,NNW,338,0.0,0.0,76,0.00,,,0.03,WUHU216HW,2013-03-28 04:11:00,
2013-03-27 21:16:00,51.3,44.0,29.51,NNW,338,0.0,0.0,76,0.00,,,0.03,WUHU216HW,2013-03-28 04:16:00,
2013-03-27 22:00:00,50.8,43.8,29.55,NNW,338,0.2,0.2,77,0.00,,,0.03,WUHU216HW,2013-03-28 05:00:00,
2013-03-27 22:05:00,50.6,43.9,29.53,NNW,338,0.9,1.1,78,0.00,,,0.03,WUHU216HW,2013-03-28 05:05:00,
2013-03-27 22:06:00,50.4,43.7,29.52,NNW,338,0.0,0.0,78,0.00,,,0.03,WUHU216HW,2013-03-28 05:06:00,
2013-03-27 22:10:00,50.4,43.7,29.52,NNW,338,0.0,1.3,78,0.00,,,0.03,WUHU216HW,2013-03-28 05:10:00,
2013-03-27 22:15:00,50.4,43.7,29.52,NNW,338,0.0,1.3,78,0.00,,,0.03,WUHU216HW,2013-03-28 05:15:00,
2013-03-27 23:00:00,49.3,43.4,29.56,NW,315,0.0,0.0,80,0.00,,,0.03,WUHU216HW,2013-03-28 06:00:00,
2013-03-27 23:05:00,49.3,43.4,29.53,NW,315,0.0,0.0,80,0.00,,,0.03,WUHU216HW,2013-03-28 06:05:00,
2013-03-27 23:07:00,49.1,43.5,29.52,NW,315,0.0,0.0,81,0.00,,,0.03,WUHU216HW,2013-03-28 06:07:00,
2013-03-27 23:10:00,49.1,43.5,29.52,NW,315,0.0,0.0,81,0.00,,,0.03,WUHU216HW,2013-03-28 06:10:00,
2013-03-27 23:15:00,49.1,43.5,29.52,NW,315,0.0,0.0,81,0.00,,,0.03,WUHU216HW,2013-03-28 06:15:00,